Time;durP1;ratioP1;P1;durP2;ratioP2;P2;SDS_P1;SDS_P2;PMS_P1;PMS_P2;Temp;Humidity;BMP_temperature;BMP_pressure;BME280_temperature;BME280_humidity;BME280_pressure;Samples;Min_cycle;Max_cycle;Signal;HPM_P1;HPM_P2
2022/08/08 00:01:06;;;;;;;;;;;;;;;23.48;42.13;100059.50;4485148;32;34152;-70
2022/08/08 00:03:36;;;;;;;;;;;;;;;23.66;41.39;100048.38;4470805;32;33890;-71
2022/08/08 00:06:11;;;;;;;;;;;;;;;23.78;40.96;100053.25;4485416;32;34683;-71
2022/08/08 00:08:55;;;;;;;;;;;;;;;23.00;43.08;100052.19;4458425;32;34135;-71
2022/08/08 00:11:23;;;;;;;;;;;;;;;23.34;42.86;100056.06;4485397;32;34277;-71
2022/08/08 00:13:56;;;;;;;;;;;;;;;23.31;42.00;100049.25;4484617;32;34111;-70
2022/08/08 00:16:44;;;;;;;;;;;;;;;23.42;41.77;100041.41;4473391;32;33895;-71
2022/08/08 00:19:14;;;;;;;;;;;;;;;23.32;42.01;100039.78;4485200;32;34214;-71
2022/08/08 00:21:44;;;;;;;;;;;;;;;23.08;42.86;100037.50;4484716;32;34343;-70
2022/08/08 00:24:14;;;;;;;;;;;;;;;23.31;42.69;100037.34;4470618;32;34465;-71
2022/08/08 00:26:42;;;;;;;;;;;;;;;23.23;42.59;100030.69;4470774;32;34064;-67
2022/08/08 00:29:09;;;;;;;;;;;;;;;23.29;42.58;100028.56;4470785;32;34084;-68
2022/08/08 00:31:41;;;;;;;;;;;;;;;22.82;43.61;100020.06;4485304;32;34284;-80
2022/08/08 00:37:42;;;;;;;;;;;;;;;23.20;42.79;100014.72;4484851;32;34256;-67
2022/08/08 00:40:28;;;;;;;;;;;;;;;23.06;43.57;100008.53;4484965;32;33905;-67
2022/08/08 00:43:34;;;;;;;;;;;;;;;22.77;44.14;100009.19;4483752;32;34153;-80
2022/08/08 00:46:19;;;;;;;;;;;;;;;22.97;43.72;100016.81;4484804;32;35117;-69
2022/08/08 00:49:06;;;;;;;;;;;;;;;23.13;42.53;100018.00;4484546;32;33885;-67
2022/08/08 00:51:52;;;;;;;;;;;;;;;23.03;43.75;100015.56;4484580;32;32893;-69
2022/08/08 00:54:42;;;;;;;;;;;;;;;23.19;42.91;100012.28;4470852;32;34221;-67
2022/08/08 00:57:32;;;;;;;;;;;;;;;22.83;44.01;100013.37;4484512;32;34306;-68
2022/08/08 01:00:03;;;;;;;;;;;;;;;23.12;43.61;100012.78;4484854;32;32605;-76
2022/08/08 01:02:41;;;;;;;;;;;;;;;22.96;44.19;100011.59;4484600;32;32774;-67
2022/08/08 01:05:41;;;;;;;;;;;;;;;23.01;43.82;100006.75;4484476;32;34256;-67
2022/08/08 01:08:26;;;;;;;;;;;;;;;23.08;43.69;100009.84;4484887;32;34373;-68
2022/08/08 01:11:26;;;;;;;;;;;;;;;23.14;43.47;100005.78;4484832;32;34839;-69
2022/08/08 01:14:12;;;;;;;;;;;;;;;23.05;43.79;100002.19;4471416;32;34078;-67
2022/08/08 01:17:02;;;;;;;;;;;;;;;23.08;43.79;100000.72;4484653;32;34918;-77
2022/08/08 01:19:34;;;;;;;;;;;;;;;23.11;43.85;100013.94;4484741;32;35164;-67
2022/08/08 01:22:37;;;;;;;;;;;;;;;23.21;44.02;100005.28;4483708;32;33823;-67
2022/08/08 01:25:14;;;;;;;;;;;;;;;23.33;43.93;100013.72;4470659;32;33439;-69
2022/08/08 01:27:56;;;;;;;;;;;;;;;23.27;44.39;100017.81;4484184;32;34264;-68
2022/08/08 01:30:45;;;;;;;;;;;;;;;23.24;44.14;100012.94;4467476;32;34232;-68
2022/08/08 01:33:26;;;;;;;;;;;;;;;23.08;44.49;100014.56;4468393;32;34050;-68
2022/08/08 01:36:32;;;;;;;;;;;;;;;23.01;44.14;100005.94;4477867;32;33241;-67
2022/08/08 01:39:04;;;;;;;;;;;;;;;23.00;43.95;99994.09;4484386;32;34256;-69
2022/08/08 01:41:39;;;;;;;;;;;;;;;22.85;44.27;99994.50;4466926;32;34248;-76
2022/08/08 01:44:10;;;;;;;;;;;;;;;22.94;43.78;99993.37;4467338;32;34037;-67
2022/08/08 01:46:45;;;;;;;;;;;;;;;23.18;43.76;99988.53;4468330;32;33528;-67
2022/08/08 01:49:21;;;;;;;;;;;;;;;23.43;43.01;99986.84;4467316;32;34285;-77
2022/08/08 01:52:08;;;;;;;;;;;;;;;23.34;43.46;99984.91;4469627;32;35213;-68
2022/08/08 01:55:05;;;;;;;;;;;;;;;23.30;43.21;99983.94;4485383;32;33826;-67
2022/08/08 01:58:11;;;;;;;;;;;;;;;23.54;42.53;99988.09;4468162;32;33455;-70
2022/08/08 02:00:44;;;;;;;;;;;;;;;23.52;42.70;99994.00;4470748;32;34163;-71
2022/08/08 02:03:18;;;;;;;;;;;;;;;22.89;44.22;99984.44;4469076;32;32615;-71
2022/08/08 02:06:12;;;;;;;;;;;;;;;23.15;43.54;99992.75;4468837;32;33814;-71
2022/08/08 02:09:03;;;;;;;;;;;;;;;23.14;43.73;99993.91;4469545;32;33173;-71
2022/08/08 02:11:45;;;;;;;;;;;;;;;23.11;43.51;99991.78;4469274;32;34922;-70
2022/08/08 02:14:33;;;;;;;;;;;;;;;23.28;43.15;100004.78;4468751;32;34429;-71
2022/08/08 02:17:25;;;;;;;;;;;;;;;23.14;43.90;100008.53;4469277;32;33978;-71
2022/08/08 02:20:23;;;;;;;;;;;;;;;23.37;42.97;100010.31;4463477;32;34094;-69
2022/08/08 02:23:17;;;;;;;;;;;;;;;22.94;44.44;100011.94;4454518;32;34186;-70
2022/08/08 02:25:46;;;;;;;;;;;;;;;23.10;44.09;100002.03;4453448;32;34593;-70
2022/08/08 02:28:21;;;;;;;;;;;;;;;23.20;44.46;100014.72;4454946;32;33961;-71
2022/08/08 02:31:07;;;;;;;;;;;;;;;23.12;44.48;100018.31;4453708;32;33690;-71
2022/08/08 02:33:55;;;;;;;;;;;;;;;23.03;44.44;100021.09;4454971;32;35061;-71
2022/08/08 02:36:39;;;;;;;;;;;;;;;23.22;44.25;100029.06;4470288;32;35388;-71
2022/08/08 02:39:30;;;;;;;;;;;;;;;22.90;44.41;100025.59;4468840;32;34568;-70
2022/08/08 02:42:27;;;;;;;;;;;;;;;22.95;44.16;100019.09;4445709;32;32846;-69
2022/08/08 02:45:13;;;;;;;;;;;;;;;23.12;43.78;100023.84;4469151;32;33353;-70
2022/08/08 02:47:53;;;;;;;;;;;;;;;23.20;43.62;100025.81;4468895;32;34139;-70
2022/08/08 02:50:41;;;;;;;;;;;;;;;22.87;44.60;100011.59;4468357;32;34189;-71
2022/08/08 02:53:30;;;;;;;;;;;;;;;22.71;44.48;100014.03;4470026;32;34170;-71
2022/08/08 02:56:07;;;;;;;;;;;;;;;23.06;44.71;100020.41;4470550;32;33824;-70
2022/08/08 02:58:54;;;;;;;;;;;;;;;23.24;44.36;100024.00;4485726;32;35275;-71
2022/08/08 03:01:27;;;;;;;;;;;;;;;23.24;43.90;100035.09;4485331;32;34826;-70
2022/08/08 03:04:37;;;;;;;;;;;;;;;23.23;44.11;100027.91;4485420;32;33949;-71
2022/08/08 03:07:43;;;;;;;;;;;;;;;23.23;44.08;100035.41;4473992;32;34196;-71
2022/08/08 03:10:30;;;;;;;;;;;;;;;22.77;45.41;100032.12;4485992;32;35752;-71
2022/08/08 03:13:23;;;;;;;;;;;;;;;22.61;45.64;100037.28;4484915;32;33704;-71
2022/08/08 03:16:10;;;;;;;;;;;;;;;22.91;45.29;100034.72;4473806;32;34107;-71
2022/08/08 03:19:05;;;;;;;;;;;;;;;23.14;45.37;100040.94;4485725;32;34935;-69
2022/08/08 03:21:33;;;;;;;;;;;;;;;22.84;45.18;100048.22;4474898;32;34440;-71
2022/08/08 03:24:20;;;;;;;;;;;;;;;23.18;44.07;100044.69;4485198;32;34182;-71
2022/08/08 03:26:51;;;;;;;;;;;;;;;23.05;44.70;100034.59;4485603;32;34549;-71
2022/08/08 03:29:20;;;;;;;;;;;;;;;22.82;45.43;100036.66;4485680;32;33950;-71
2022/08/08 03:34:56;;;;;;;;;;;;;;;23.14;44.50;100047.28;4469516;32;34564;-71
2022/08/08 03:37:24;;;;;;;;;;;;;;;23.07;44.51;100035.09;4468568;32;32752;-71
2022/08/08 03:40:12;;;;;;;;;;;;;;;22.98;44.84;100037.84;4469086;32;34848;-71
2022/08/08 03:43:00;;;;;;;;;;;;;;;23.22;44.56;100039.31;4468139;32;33472;-70
2022/08/08 03:45:46;;;;;;;;;;;;;;;22.90;45.50;100028.38;4472800;32;33663;-69
2022/08/08 03:48:30;;;;;;;;;;;;;;;23.08;45.00;100036.72;4473099;32;34208;-70
2022/08/08 03:51:17;;;;;;;;;;;;;;;23.46;44.34;100044.34;4485474;32;34098;-68
2022/08/08 03:54:05;;;;;;;;;;;;;;;23.34;44.38;100039.47;4473372;32;35416;-68
2022/08/08 03:56:34;;;;;;;;;;;;;;;23.05;45.15;100046.47;4485487;32;35070;-67
2022/08/08 03:59:02;;;;;;;;;;;;;;;22.81;45.84;100035.06;4485248;32;33084;-67
2022/08/08 04:01:34;;;;;;;;;;;;;;;23.08;45.37;100037.50;4485444;32;34492;-67
2022/08/08 04:04:22;;;;;;;;;;;;;;;23.45;44.69;100039.94;4466645;32;33670;-71
2022/08/08 04:06:57;;;;;;;;;;;;;;;23.28;44.28;100041.59;4472576;32;34249;-66
2022/08/08 04:09:28;;;;;;;;;;;;;;;22.96;45.40;100042.88;4469380;32;32797;-66
2022/08/08 04:12:15;;;;;;;;;;;;;;;22.69;45.87;100039.25;4467811;32;32384;-67
2022/08/08 04:14:45;;;;;;;;;;;;;;;23.07;45.39;100051.69;4468163;32;34647;-66
2022/08/08 04:17:17;;;;;;;;;;;;;;;23.23;45.14;100058.34;4468302;32;33951;-70
2022/08/08 04:20:05;;;;;;;;;;;;;;;23.13;45.15;100059.50;4477653;32;33769;-66
2022/08/08 04:22:34;;;;;;;;;;;;;;;23.10;44.95;100051.84;4484850;32;34230;-66
2022/08/08 04:25:02;;;;;;;;;;;;;;;23.26;45.38;100063.25;4484792;32;35284;-67
2022/08/08 04:27:30;;;;;;;;;;;;;;;23.16;44.99;100065.53;4484941;32;33873;-67
2022/08/08 04:30:17;;;;;;;;;;;;;;;22.95;45.98;100071.66;4468799;32;32818;-67
2022/08/08 04:32:47;;;;;;;;;;;;;;;23.21;45.02;100068.94;4453556;32;35066;-77
2022/08/08 04:35:17;;;;;;;;;;;;;;;23.19;45.39;100075.94;4457942;32;34086;-65
2022/08/08 04:37:49;;;;;;;;;;;;;;;23.25;45.90;100071.88;4468104;32;35029;-65
2022/08/08 04:40:17;;;;;;;;;;;;;;;23.08;47.20;100070.72;4468373;32;33033;-65
2022/08/08 04:42:48;;;;;;;;;;;;;;;23.06;47.30;100070.25;4454110;32;33550;-65
2022/08/08 04:45:24;;;;;;;;;;;;;;;23.43;46.24;100070.72;4455464;32;34173;-66
2022/08/08 04:47:53;;;;;;;;;;;;;;;23.41;46.68;100074.97;4468888;32;34276;-65
2022/08/08 04:50:20;;;;;;;;;;;;;;;23.57;46.23;100073.31;4480522;32;33285;-66
2022/08/08 04:52:52;;;;;;;;;;;;;;;23.54;46.46;100069.25;4482846;32;34277;-64
2022/08/08 04:55:27;;;;;;;;;;;;;;;23.36;48.09;100080.69;4484276;32;34387;-65
2022/08/08 04:58:04;;;;;;;;;;;;;;;23.17;49.26;100078.22;4483957;32;34252;-67
2022/08/08 05:00:38;;;;;;;;;;;;;;;23.06;48.51;100073.00;4484049;32;34745;-65
2022/08/08 05:03:07;;;;;;;;;;;;;;;23.28;47.99;100085.06;4483593;32;34343;-65
2022/08/08 05:05:44;;;;;;;;;;;;;;;23.43;47.85;100086.53;4483712;32;35336;-66
2022/08/08 05:08:20;;;;;;;;;;;;;;;23.36;49.07;100091.75;4484489;32;33549;-65
2022/08/08 05:10:55;;;;;;;;;;;;;;;23.23;50.81;100086.03;4483887;32;33071;-65
2022/08/08 05:13:24;;;;;;;;;;;;;;;23.20;49.43;100085.91;4484450;32;34136;-66
2022/08/08 05:15:52;;;;;;;;;;;;;;;23.16;49.89;100088.50;4484310;32;34394;-65
2022/08/08 05:18:40;;;;;;;;;;;;;;;23.42;49.32;100084.91;4484275;32;33836;-64
2022/08/08 05:21:12;;;;;;;;;;;;;;;23.08;49.99;100083.75;4483683;32;34018;-67
2022/08/08 05:23:40;;;;;;;;;;;;;;;22.88;50.37;100082.41;4484296;32;34675;-65
2022/08/08 05:26:12;;;;;;;;;;;;;;;23.24;50.50;100084.91;4484140;32;35280;-67
2022/08/08 05:28:40;;;;;;;;;;;;;;;23.23;50.29;100086.03;4485159;32;33189;-67
2022/08/08 05:31:23;;;;;;;;;;;;;;;23.65;49.38;100104.91;4486084;32;33187;-67
2022/08/08 05:34:29;;;;;;;;;;;;;;;23.77;49.62;100096.78;4485556;32;34415;-66
2022/08/08 05:36:57;;;;;;;;;;;;;;;23.25;51.80;100100.38;4471933;32;34105;-66
2022/08/08 05:39:25;;;;;;;;;;;;;;;23.52;51.12;100101.16;4484004;32;34974;-65
2022/08/08 05:42:01;;;;;;;;;;;;;;;23.63;51.07;100101.66;4484813;32;33478;-68
2022/08/08 05:44:29;;;;;;;;;;;;;;;23.55;51.55;100093.03;4485715;32;34903;-65
2022/08/08 05:46:58;;;;;;;;;;;;;;;23.51;53.06;100092.06;4485849;32;34095;-67
2022/08/08 05:49:31;;;;;;;;;;;;;;;24.23;50.25;100099.91;4485636;32;33610;-64
2022/08/08 05:52:04;;;;;;;;;;;;;;;24.70;48.58;100097.09;4476463;32;33235;-66
2022/08/08 05:54:36;;;;;;;;;;;;;;;24.90;47.97;100101.06;4470268;32;33950;-75
2022/08/08 05:57:17;;;;;;;;;;;;;;;24.63;49.48;100097.63;4469811;32;34498;-67
2022/08/08 06:00:06;;;;;;;;;;;;;;;24.87;49.26;100104.50;4470288;32;34069;-66
2022/08/08 06:03:09;;;;;;;;;;;;;;;23.89;51.35;100085.03;4473872;32;34073;-67
2022/08/08 06:05:49;;;;;;;;;;;;;;;23.78;51.85;100089.28;4487031;32;34261;-72
2022/08/08 06:08:28;;;;;;;;;;;;;;;23.74;52.50;100084.37;4487165;32;35285;-66
2022/08/08 06:11:02;;;;;;;;;;;;;;;23.99;52.23;100092.16;4473133;32;33736;-67
2022/08/08 06:13:30;;;;;;;;;;;;;;;23.79;51.53;100102.81;4473029;32;34208;-66
2022/08/08 06:16:03;;;;;;;;;;;;;;;24.02;50.88;100110.91;4473628;32;35070;-67
2022/08/08 06:18:35;;;;;;;;;;;;;;;24.60;49.23;100109.41;4487195;32;34460;-66
2022/08/08 06:21:03;;;;;;;;;;;;;;;24.97;48.05;100113.25;4466498;32;34872;-73
2022/08/08 06:23:51;;;;;;;;;;;;;;;24.23;50.45;100103.47;4482555;32;33421;-73
2022/08/08 06:26:29;;;;;;;;;;;;;;;24.53;49.54;100104.34;4472124;32;32457;-71
2022/08/08 06:29:13;;;;;;;;;;;;;;;24.52;49.79;100107.50;4477928;32;34445;-73
2022/08/08 06:32:02;;;;;;;;;;;;;;;24.48;50.06;100104.56;4470221;32;34070;-75
2022/08/08 06:34:46;;;;;;;;;;;;;;;24.48;49.42;100099.00;4471379;32;33197;-71
2022/08/08 06:37:36;;;;;;;;;;;;;;;24.55;49.41;100090.97;4469919;32;33491;-72
2022/08/08 06:40:08;;;;;;;;;;;;;;;24.77;48.50;100100.97;4470373;32;34445;-71
2022/08/08 06:42:45;;;;;;;;;;;;;;;24.83;48.25;100104.34;4472190;32;34052;-73
2022/08/08 06:45:16;;;;;;;;;;;;;;;25.10;47.91;100116.13;4486872;32;34073;-73
2022/08/08 06:47:43;;;;;;;;;;;;;;;24.98;47.74;100114.06;4472217;32;34263;-73
2022/08/08 06:50:27;;;;;;;;;;;;;;;25.15;48.22;100118.69;4474380;32;34175;-74
2022/08/08 06:52:59;;;;;;;;;;;;;;;25.11;47.96;100117.72;4486614;32;34828;-73
2022/08/08 06:55:37;;;;;;;;;;;;;;;25.10;48.36;100116.13;4483094;32;34125;-69
2022/08/08 06:58:08;;;;;;;;;;;;;;;24.74;49.36;100114.72;4484176;32;34162;-74
2022/08/08 07:00:38;;;;;;;;;;;;;;;24.96;48.92;100116.38;4479814;32;34559;-72
2022/08/08 07:03:08;;;;;;;;;;;;;;;25.05;48.24;100117.09;4485184;32;34268;-71
2022/08/08 07:05:56;;;;;;;;;;;;;;;24.89;47.87;100116.09;4473157;32;33407;-69
2022/08/08 07:08:31;;;;;;;;;;;;;;;24.48;50.52;100109.25;4484827;32;33808;-68
2022/08/08 07:10:59;;;;;;;;;;;;;;;24.20;49.30;100103.34;4483887;32;34453;-65
2022/08/08 07:13:29;;;;;;;;;;;;;;;24.31;49.17;100097.09;4478948;32;33635;-72
2022/08/08 07:15:57;;;;;;;;;;;;;;;24.23;47.10;100099.91;4482998;32;33417;-73
2022/08/08 07:18:56;;;;;;;;;;;;;;;23.99;49.78;100098.50;4485297;32;35037;-66
2022/08/08 07:21:26;;;;;;;;;;;;;;;24.28;48.79;100097.78;4484956;31;34429;-65
2022/08/08 07:24:00;;;;;;;;;;;;;;;24.73;47.01;100108.34;4482729;32;33614;-69
2022/08/08 07:26:36;;;;;;;;;;;;;;;24.63;44.06;100111.50;4484724;32;34285;-66
2022/08/08 07:29:04;;;;;;;;;;;;;;;24.82;44.99;100119.41;4484649;32;34036;-65
2022/08/08 07:31:38;;;;;;;;;;;;;;;24.23;45.94;100122.09;4484658;32;35408;-64
2022/08/08 07:34:08;;;;;;;;;;;;;;;24.55;45.88;100112.34;4483425;32;34227;-65
2022/08/08 07:36:36;;;;;;;;;;;;;;;24.87;46.42;100126.72;4483636;32;34032;-70
2022/08/08 07:39:18;;;;;;;;;;;;;;;24.94;44.71;100127.00;4484816;32;34121;-69
2022/08/08 07:41:57;;;;;;;;;;;;;;;25.27;44.44;100126.28;4483351;32;34551;-72
2022/08/08 07:44:31;;;;;;;;;;;;;;;25.66;43.34;100126.94;4484560;32;34820;-76
2022/08/08 07:47:09;;;;;;;;;;;;;;;26.01;42.53;100127.44;4485064;32;33283;-70
2022/08/08 07:49:40;;;;;;;;;;;;;;;25.70;42.27;100128.72;4484947;32;33821;-74
2022/08/08 07:52:16;;;;;;;;;;;;;;;25.76;43.24;100132.88;4484991;32;34279;-65
2022/08/08 07:54:52;;;;;;;;;;;;;;;26.10;41.83;100141.25;4459236;32;34898;-66
2022/08/08 07:57:23;;;;;;;;;;;;;;;26.12;42.43;100138.94;4483970;32;32999;-65
2022/08/08 07:59:56;;;;;;;;;;;;;;;26.06;42.18;100143.09;4484245;32;34194;-65
2022/08/08 08:02:26;;;;;;;;;;;;;;;26.07;41.09;100144.72;4484428;32;34346;-73
2022/08/08 08:05:07;;;;;;;;;;;;;;;25.48;42.23;100137.41;4484716;32;34264;-67
2022/08/08 08:07:42;;;;;;;;;;;;;;;25.82;39.82;100138.25;4484458;32;33061;-69
2022/08/08 08:10:13;;;;;;;;;;;;;;;26.06;38.03;100143.91;4483875;32;34034;-74
2022/08/08 08:12:42;;;;;;;;;;;;;;;26.63;38.51;100135.91;4476998;32;34338;-67
2022/08/08 08:15:11;;;;;;;;;;;;;;;26.84;38.70;100135.78;4469225;32;34218;-67
2022/08/08 08:17:44;;;;;;;;;;;;;;;26.16;39.09;100132.34;4469545;32;33573;-66
2022/08/08 08:20:16;;;;;;;;;;;;;;;26.01;40.33;100144.12;4469194;32;34593;-68
2022/08/08 08:22:45;;;;;;;;;;;;;;;26.14;38.12;100139.41;4469170;32;34607;-67
2022/08/08 08:25:14;;;;;;;;;;;;;;;26.35;38.23;100131.81;4471177;32;34200;-66
2022/08/08 08:27:46;;;;;;;;;;;;;;;26.47;36.82;100131.00;4485587;32;34288;-67
2022/08/08 08:30:13;;;;;;;;;;;;;;;27.43;36.33;100135.25;4486248;32;34355;-67
2022/08/08 08:32:41;;;;;;;;;;;;;;;27.94;36.31;100137.47;4485837;32;35371;-67
2022/08/08 08:35:18;;;;;;;;;;;;;;;27.90;36.36;100142.16;4482672;32;34661;-68
2022/08/08 08:37:56;;;;;;;;;;;;;;;27.16;35.33;100143.16;4465411;32;33168;-67
2022/08/08 08:40:44;;;;;;;;;;;;;;;27.90;35.47;100147.72;4485527;32;34339;-67
2022/08/08 08:43:17;;;;;;;;;;;;;;;28.06;35.76;100167.31;4484159;32;34273;-68
2022/08/08 08:45:46;;;;;;;;;;;;;;;27.94;34.26;100170.94;4485596;32;33933;-67
2022/08/08 08:48:14;;;;;;;;;;;;;;;27.38;35.83;100166.94;4485879;32;33502;-67
2022/08/08 08:50:50;;;;;;;;;;;;;;;27.52;37.63;100166.56;4483989;32;34164;-69
2022/08/08 08:53:18;;;;;;;;;;;;;;;27.65;36.54;100172.09;4484648;32;34515;-70
2022/08/08 08:56:06;;;;;;;;;;;;;;;27.88;36.40;100161.22;4485439;32;34222;-67
2022/08/08 08:58:38;;;;;;;;;;;;;;;28.25;35.99;100159.06;4485787;32;33259;-68
2022/08/08 09:01:06;;;;;;;;;;;;;;;28.57;35.49;100159.88;4484510;32;34022;-67
2022/08/08 09:03:40;;;;;;;;;;;;;;;28.00;37.04;100161.16;4469579;32;34258;-67
2022/08/08 09:06:19;;;;;;;;;;;;;;;28.10;36.63;100163.44;4469798;32;35045;-67
2022/08/08 09:09:05;;;;;;;;;;;;;;;28.18;36.98;100161.63;4470125;32;34082;-70
2022/08/08 09:11:47;;;;;;;;;;;;;;;28.14;37.81;100164.34;4457108;32;33943;-67
2022/08/08 09:14:33;;;;;;;;;;;;;;;28.23;37.99;100167.78;4469587;32;34328;-69
2022/08/08 09:17:01;;;;;;;;;;;;;;;28.49;36.60;100172.06;4467257;32;35207;-67
2022/08/08 09:19:40;;;;;;;;;;;;;;;28.40;36.07;100172.19;4485157;32;34233;-69
2022/08/08 09:22:28;;;;;;;;;;;;;;;28.28;37.62;100175.06;4484508;32;34145;-71
2022/08/08 09:24:56;;;;;;;;;;;;;;;28.28;36.97;100175.06;4485488;32;34340;-67
2022/08/08 09:27:24;;;;;;;;;;;;;;;27.95;39.48;100170.59;4485641;32;34870;-69
2022/08/08 09:30:15;;;;;;;;;;;;;;;27.72;39.46;100169.50;4485312;32;33014;-71
2022/08/08 09:32:49;;;;;;;;;;;;;;;27.78;39.92;100165.31;4484492;32;34226;-70
2022/08/08 09:35:37;;;;;;;;;;;;;;;27.99;38.88;100165.94;4473545;32;35348;-67
2022/08/08 09:38:23;;;;;;;;;;;;;;;27.98;38.62;100158.72;4485256;32;33840;-68
2022/08/08 09:40:55;;;;;;;;;;;;;;;28.02;38.42;100167.19;4471816;32;33270;-70
2022/08/08 09:43:29;;;;;;;;;;;;;;;27.83;40.15;100171.41;4470645;32;34358;-71
2022/08/08 09:46:16;;;;;;;;;;;;;;;27.82;39.54;100155.06;4484485;32;35421;-69
2022/08/08 09:48:57;;;;;;;;;;;;;;;27.75;40.19;100152.06;4472318;32;34167;-68
2022/08/08 09:51:51;;;;;;;;;;;;;;;27.58;40.40;100151.22;4484767;32;33386;-66
2022/08/08 09:54:42;;;;;;;;;;;;;;;27.34;40.67;100148.47;4484668;32;34393;-70
2022/08/08 09:57:11;;;;;;;;;;;;;;;27.69;40.59;100148.72;4467702;32;34564;-68
2022/08/08 09:59:51;;;;;;;;;;;;;;;27.94;39.63;100151.44;4458488;32;34313;-68
2022/08/08 10:02:40;;;;;;;;;;;;;;;27.77;40.19;100147.75;4466471;32;33453;-68
2022/08/08 10:05:15;;;;;;;;;;;;;;;27.47;40.38;100141.72;4466395;32;35086;-71
2022/08/08 10:07:51;;;;;;;;;;;;;;;27.31;41.22;100147.22;4467618;32;33851;-74
2022/08/08 10:10:31;;;;;;;;;;;;;;;27.77;39.96;100138.56;4480516;32;34010;-69
2022/08/08 10:12:59;;;;;;;;;;;;;;;27.62;40.55;100143.78;4463338;32;34413;-68
2022/08/08 10:15:41;;;;;;;;;;;;;;;27.90;40.50;100150.50;4482538;32;34136;-68
2022/08/08 10:18:27;;;;;;;;;;;;;;;27.75;41.38;100150.09;4486529;32;35335;-69
2022/08/08 10:21:08;;;;;;;;;;;;;;;26.96;41.31;100163.63;4486482;32;34161;-68
2022/08/08 10:23:53;;;;;;;;;;;;;;;27.56;41.04;100161.91;4485979;32;33593;-69
2022/08/08 10:26:28;;;;;;;;;;;;;;;27.85;40.92;100153.53;4486188;32;34273;-68
2022/08/08 10:29:16;;;;;;;;;;;;;;;27.87;40.60;100156.81;4485851;32;35321;-67
2022/08/08 10:34:42;;;;;;;;;;;;;;;27.31;40.96;100144.44;4474957;32;34030;-70
2022/08/08 10:37:12;;;;;;;;;;;;;;;27.40;42.62;100144.28;4469334;32;34689;-70
2022/08/08 10:39:43;;;;;;;;;;;;;;;27.51;41.07;100136.25;4469554;32;34565;-67
2022/08/08 10:42:24;;;;;;;;;;;;;;;27.27;40.89;100131.56;4470402;32;34416;-67
2022/08/08 10:45:00;;;;;;;;;;;;;;;27.34;41.20;100134.56;4466988;32;32937;-67
2022/08/08 10:47:27;;;;;;;;;;;;;;;27.28;41.48;100128.44;4469106;32;34410;-67
2022/08/08 10:50:10;;;;;;;;;;;;;;;27.46;40.82;100131.75;4469513;32;35178;-70
2022/08/08 10:52:42;;;;;;;;;;;;;;;27.40;41.76;100147.88;4469422;32;34086;-70
2022/08/08 10:55:16;;;;;;;;;;;;;;;27.48;42.01;100162.84;4469477;32;34303;-67
2022/08/08 10:58:04;;;;;;;;;;;;;;;27.37;42.79;100162.53;4456939;32;34347;-69
2022/08/08 11:00:33;;;;;;;;;;;;;;;27.02;43.97;100162.22;4484638;32;34267;-70
2022/08/08 11:03:19;;;;;;;;;;;;;;;27.05;45.47;100174.62;4484851;32;34505;-69
2022/08/08 11:06:07;;;;;;;;;;;;;;;27.07;45.20;100166.75;4485133;32;34655;-70
2022/08/08 11:08:40;;;;;;;;;;;;;;;27.03;45.48;100155.47;4471426;32;34345;-70
2022/08/08 11:11:20;;;;;;;;;;;;;;;27.05;46.01;100155.94;4485305;32;35247;-69
2022/08/08 11:14:08;;;;;;;;;;;;;;;26.55;47.19;100157.91;4484605;32;35019;-68
2022/08/08 11:16:43;;;;;;;;;;;;;;;26.83;46.81;100154.47;4484503;32;33096;-69
2022/08/08 11:19:13;;;;;;;;;;;;;;;27.16;45.91;100151.50;4470965;32;34244;-68
2022/08/08 11:21:46;;;;;;;;;;;;;;;26.16;48.25;100160.16;4471134;32;34435;-69
2022/08/08 11:24:24;;;;;;;;;;;;;;;26.67;47.57;100156.31;4472195;32;34891;-69
2022/08/08 11:26:51;;;;;;;;;;;;;;;27.00;47.17;100154.22;4484327;32;33756;-71
2022/08/08 11:29:23;;;;;;;;;;;;;;;27.07;47.16;100145.28;4473473;32;34036;-71
2022/08/08 11:32:10;;;;;;;;;;;;;;;27.22;46.62;100152.13;4467316;32;35433;-69
2022/08/08 11:34:40;;;;;;;;;;;;;;;27.33;47.74;100144.91;4468013;32;34157;-69
2022/08/08 11:37:28;;;;;;;;;;;;;;;27.74;45.37;100139.31;4468207;32;34287;-69
2022/08/08 11:40:15;;;;;;;;;;;;;;;27.23;47.06;100148.16;4473303;32;34220;-68
2022/08/08 11:42:51;;;;;;;;;;;;;;;27.63;45.75;100150.16;4484505;32;34600;-66
2022/08/08 11:45:20;;;;;;;;;;;;;;;27.41;46.71;100157.88;4484229;32;34315;-69
2022/08/08 11:47:48;;;;;;;;;;;;;;;26.71;49.36;100160.84;4470702;32;34645;-70
2022/08/08 11:50:31;;;;;;;;;;;;;;;27.18;47.76;100167.88;4472335;32;34354;-68
2022/08/08 11:53:01;;;;;;;;;;;;;;;26.49;50.25;100164.84;4484737;32;34066;-71
2022/08/08 11:55:34;;;;;;;;;;;;;;;27.22;48.60;100154.09;4471212;32;34593;-69
2022/08/08 11:58:04;;;;;;;;;;;;;;;26.69;50.39;100154.00;4483490;32;33521;-69
2022/08/08 12:00:42;;;;;;;;;;;;;;;26.90;50.28;100174.19;4484291;32;34057;-69
2022/08/08 12:03:16;;;;;;;;;;;;;;;26.66;51.15;100176.97;4484742;32;34916;-69
2022/08/08 12:05:47;;;;;;;;;;;;;;;26.88;50.06;100182.06;4484667;32;34850;-68
2022/08/08 12:08:16;;;;;;;;;;;;;;;25.81;52.21;100178.31;4484534;32;33456;-68
2022/08/08 12:10:49;;;;;;;;;;;;;;;26.13;52.80;100180.34;4484484;32;34934;-69
2022/08/08 12:13:21;;;;;;;;;;;;;;;26.43;51.38;100168.22;4468677;32;35158;-66
2022/08/08 12:16:12;;;;;;;;;;;;;;;25.80;52.50;100174.72;4456763;32;33826;-65
2022/08/08 12:18:49;;;;;;;;;;;;;;;25.50;54.52;100174.81;4468895;32;34304;-68
2022/08/08 12:21:23;;;;;;;;;;;;;;;25.17;54.34;100174.69;4454538;32;33935;-67
2022/08/08 12:24:12;;;;;;;;;;;;;;;25.24;54.91;100176.97;4468957;32;35038;-67
2022/08/08 12:26:40;;;;;;;;;;;;;;;24.97;54.99;100171.56;4475280;32;34730;-68
2022/08/08 12:29:18;;;;;;;;;;;;;;;25.22;53.27;100176.50;4484792;32;33502;-68
2022/08/08 12:32:08;;;;;;;;;;;;;;;25.72;51.83;100170.88;4483957;32;35124;-73
2022/08/08 12:34:43;;;;;;;;;;;;;;;25.09;53.72;100175.56;4477378;32;34322;-68
2022/08/08 12:37:28;;;;;;;;;;;;;;;25.25;52.93;100170.25;4483885;32;33991;-67
2022/08/08 12:40:13;;;;;;;;;;;;;;;25.14;53.19;100176.19;4484308;32;33217;-69
2022/08/08 12:42:51;;;;;;;;;;;;;;;24.47;55.16;100174.19;4482732;32;33695;-67
2022/08/08 12:45:18;;;;;;;;;;;;;;;24.97;53.31;100179.06;4482589;32;34399;-66
2022/08/08 12:48:18;;;;;;;;;;;;;;;25.15;54.02;100180.59;4483735;32;33728;-69
2022/08/08 12:51:03;;;;;;;;;;;;;;;25.57;52.61;100197.31;4483576;32;33225;-68
2022/08/08 12:53:33;;;;;;;;;;;;;;;26.15;50.65;100189.13;4484300;31;34020;-68
2022/08/08 12:56:09;;;;;;;;;;;;;;;25.73;51.81;100193.91;4456536;32;866685;-74
2022/08/08 12:58:50;;;;;;;;;;;;;;;25.93;51.18;100192.28;4483920;32;34433;-68
2022/08/08 13:01:17;;;;;;;;;;;;;;;26.12;50.93;100194.56;4483778;32;33407;-66
2022/08/08 13:04:11;;;;;;;;;;;;;;;25.86;51.75;100195.59;4470126;32;33739;-67
2022/08/08 13:07:04;;;;;;;;;;;;;;;25.20;52.35;100199.03;4484154;32;33957;-66
2022/08/08 13:09:33;;;;;;;;;;;;;;;25.02;52.98;100192.75;4470009;32;34046;-66
2022/08/08 13:12:25;;;;;;;;;;;;;;;25.12;52.53;100191.56;4483251;32;32852;-70
2022/08/08 13:14:56;;;;;;;;;;;;;;;25.03;52.88;100188.00;4483066;32;34149;-75
2022/08/08 13:17:25;;;;;;;;;;;;;;;25.33;51.48;100195.19;4483502;32;34150;-66
2022/08/08 13:20:16;;;;;;;;;;;;;;;25.86;49.55;100189.22;4483764;32;34763;-69
2022/08/08 13:22:44;;;;;;;;;;;;;;;25.75;48.77;100180.50;4483914;32;33475;-68
2022/08/08 13:25:15;;;;;;;;;;;;;;;25.27;49.17;100188.22;4483348;32;34911;-66
2022/08/08 13:27:43;;;;;;;;;;;;;;;25.54;49.04;100186.88;4483742;32;34378;-67
2022/08/08 13:30:13;;;;;;;;;;;;;;;25.12;50.11;100186.81;4483400;32;33990;-65
2022/08/08 13:32:56;;;;;;;;;;;;;;;25.22;50.77;100174.53;4483589;32;34220;-64
2022/08/08 13:35:26;;;;;;;;;;;;;;;26.00;49.06;100175.84;4483833;32;34956;-69
2022/08/08 13:38:05;;;;;;;;;;;;;;;25.22;49.77;100173.72;4483501;32;35197;-68
2022/08/08 13:40:38;;;;;;;;;;;;;;;25.49;49.37;100175.97;4483126;32;34443;-67
2022/08/08 13:43:07;;;;;;;;;;;;;;;25.36;50.08;100165.94;4481981;32;33548;-67